Pagrindinis puslapis
METAR-TAF:

METAR-TAF

Oro uostai :

Sierra Blanca Regional Airport

Ruidoso, Naujoji Meksika, Jungtinės Amerikos Valstijos

platuma: 33-28N, ilguma: 105-32W, Aukštis: 2076 m

Dabartinis oras

Ataskaita buvo paskelbta 28 minutes, ne 10:55 UTC
Vėjas 3 kt iš Pietų
Temperatūra 13°C
Drėgmė 51%
Slėgis 1031 hPa
Matomumas: 16.1 km
Giedras dangus

METAR: KSRR 291055Z AUTO 17003KT 10SM CLR 13/03 A3045 RMK AO2

Laikas: 05:23 (11:23 UTC)


TAF: trūkstamas

Orai ataskaitas ir orų prognozės (METAR, TAF).

turimą stotys yra geltonos ir raudonos taškus žemėlapyje.

Perkelti pele per norėdami pamatyti stoties vardą.

Tada spustelėkite, norėdami matyti oro stebėjimo ir prognozės.

Norėdami pakeisti žemėlapį: spustelėkite ant žalios mygtukų su juodo kryžiaus žemyn,; žalią mygtuką su brūkšneliu, jei norite nutolinti; arba žalių rodyklių gretimoms žemėlapius.


METAR-TAF: